Time;durP1;ratioP1;P1;durP2;ratioP2;P2;SDS_P1;SDS_P2;PMS_P1;PMS_P2;Temp;Humidity;BMP_temperature;BMP_pressure;BME280_temperature;BME280_humidity;BME280_pressure;Samples;Min_cycle;Max_cycle;Signal;HPM_P1;HPM_P2
2023/05/01 00:01:58;;;;;;;5.40;3.10;;;;;;;11.69;73.13;101651.22;5046963;28;20025;-83
2023/05/01 00:04:29;;;;;;;7.85;3.20;;;;;;;11.68;73.27;101646.06;5047072;28;20060;-83
2023/05/01 00:07:00;;;;;;;8.30;3.00;;;;;;;11.71;73.42;101654.59;5063512;28;20025;-83
2023/05/01 00:09:32;;;;;;;6.68;2.90;;;;;;;11.68;73.60;101646.06;5048810;28;20029;-83
2023/05/01 00:12:07;;;;;;;6.65;3.05;;;;;;;11.67;73.80;101642.56;5046294;28;20112;-83
2023/05/01 00:14:35;;;;;;;6.57;3.20;;;;;;;11.63;73.63;101638.47;5044025;28;20028;-83
2023/05/01 00:17:21;;;;;;;5.90;3.50;;;;;;;11.66;73.82;101630.34;5039944;28;20029;-83
2023/05/01 00:20:07;;;;;;;7.40;3.25;;;;;;;11.67;73.44;101637.31;5058590;28;20036;-83
2023/05/01 00:22:36;;;;;;;6.75;2.97;;;;;;;11.61;73.62;101633.28;5040967;28;20037;-83
2023/05/01 00:25:21;;;;;;;5.40;2.95;;;;;;;11.64;73.17;101623.47;5056498;28;20029;-83
2023/05/01 00:27:50;;;;;;;6.97;2.83;;;;;;;11.60;73.24;101622.81;5032167;28;20041;-83
2023/05/01 00:30:15;;;;;;;6.13;3.05;;;;;;;11.57;73.67;101620.38;5049227;28;20064;-83
2023/05/01 00:32:41;;;;;;;6.13;3.03;;;;;;;11.55;73.57;101611.72;5037733;28;20048;-83
2023/05/01 00:35:07;;;;;;;7.20;3.25;;;;;;;11.52;73.73;101611.94;5042706;28;20039;-83
2023/05/01 00:37:36;;;;;;;4.78;2.95;;;;;;;11.51;73.71;101616.34;5051267;28;20036;-83
2023/05/01 00:40:08;;;;;;;5.80;3.17;;;;;;;11.52;74.61;101611.94;5052150;28;20025;-83
2023/05/01 00:42:36;;;;;;;6.93;3.45;;;;;;;11.47;74.67;101603.50;5050048;28;20426;-83
2023/05/01 00:45:09;;;;;;;5.60;3.08;;;;;;;11.51;74.53;101610.25;5049336;28;20029;-83
2023/05/01 00:47:47;;;;;;;6.30;2.88;;;;;;;11.47;74.61;101603.50;5048891;28;20052;-83
2023/05/01 00:50:18;;;;;;;7.10;3.47;;;;;;;11.43;74.90;101597.56;5034613;28;20037;-83
2023/05/01 00:52:47;;;;;;;6.20;3.38;;;;;;;11.44;75.27;101593.16;5051778;28;20033;-83
2023/05/01 00:55:28;;;;;;;5.20;3.20;;;;;;;11.45;74.70;101594.84;5051815;28;20075;-83
2023/05/01 00:58:07;;;;;;;5.97;2.83;;;;;;;11.44;75.28;101587.88;5051570;28;20031;-83
2023/05/01 01:00:47;;;;;;;5.55;3.33;;;;;;;11.40;74.73;101586.41;5050628;28;20552;-83
2023/05/01 01:03:16;;;;;;;5.50;3.40;;;;;;;11.39;75.41;101579.44;5050206;28;20374;-83
2023/05/01 01:06:10;;;;;;;6.07;3.33;;;;;;;11.41;75.30;101583.66;5049805;28;20425;-83
2023/05/01 01:09:10;;;;;;;7.55;3.60;;;;;;;11.40;75.15;101574.06;5055008;28;20468;-83
2023/05/01 01:11:52;;;;;;;8.23;3.33;;;;;;;11.35;75.29;101567.41;5045557;28;20473;-82
2023/05/01 01:14:54;;;;;;;5.75;3.15;;;;;;;11.37;75.85;101565.53;5043075;28;20449;-83
2023/05/01 01:17:46;;;;;;;8.18;3.70;;;;;;;11.37;76.12;101565.53;5046094;28;20107;-83
2023/05/01 01:20:11;;;;;;;6.05;2.97;;;;;;;11.27;77.21;101558.22;5048661;28;20040;-83
2023/05/01 01:22:43;;;;;;;8.95;3.40;;;;;;;11.24;77.27;101562.84;5046557;28;20032;-83
2023/05/01 01:25:21;;;;;;;8.50;3.75;;;;;;;11.20;76.83;101554.28;5049327;28;20040;-83
2023/05/01 01:28:11;;;;;;;5.68;3.53;;;;;;;11.25;76.83;101549.59;5049678;28;20151;-83
2023/05/01 01:31:03;;;;;;;5.90;3.22;;;;;;;11.22;76.89;101551.56;5050510;28;20293;-83
2023/05/01 01:34:10;;;;;;;6.78;3.75;;;;;;;11.23;77.02;101540.94;5050936;28;20037;-83
2023/05/01 01:36:54;;;;;;;6.22;3.55;;;;;;;11.20;77.47;101535.84;5063857;28;20028;-83
2023/05/01 01:39:38;;;;;;;7.28;3.88;;;;;;;11.15;77.40;101530.03;5064482;28;20616;-83
2023/05/01 01:42:11;;;;;;;9.40;4.10;;;;;;;11.15;78.43;101527.41;5036646;28;20528;-83
2023/05/01 01:44:45;;;;;;;6.18;3.95;;;;;;;11.12;78.24;101529.38;5037783;28;20049;-83
2023/05/01 01:47:19;;;;;;;6.85;3.90;;;;;;;11.09;77.91;101525.16;5049075;28;20044;-83
2023/05/01 01:49:51;;;;;;;7.88;3.90;;;;;;;11.08;78.42;101520.84;5048274;28;20525;-83
2023/05/01 01:52:27;;;;;;;7.53;4.05;;;;;;;11.09;78.35;101521.69;5047663;28;20149;-83
2023/05/01 01:55:23;;;;;;;6.72;4.18;;;;;;;11.07;78.47;101520.94;5052030;28;20036;-83
2023/05/01 01:57:52;;;;;;;6.68;3.75;;;;;;;11.08;78.71;101512.94;5041681;28;20095;-83
2023/05/01 02:00:22;;;;;;;9.77;4.30;;;;;;;11.05;79.36;101513.16;5050168;28;20029;-82
2023/05/01 02:03:08;;;;;;;5.75;4.22;;;;;;;11.03;79.74;101515.03;5048054;28;20477;-83
2023/05/01 02:05:43;;;;;;;6.35;4.22;;;;;;;11.05;80.34;101510.50;5047655;28;20074;-83
2023/05/01 02:08:13;;;;;;;7.45;4.18;;;;;;;11.02;80.91;101512.50;5040088;28;20390;-83
2023/05/01 02:10:56;;;;;;;7.90;4.07;;;;;;;11.01;80.79;101506.41;5050590;28;20436;-83
2023/05/01 02:13:23;;;;;;;6.78;4.32;;;;;;;10.99;81.13;101495.13;5042051;28;20024;-83
2023/05/01 02:16:11;;;;;;;6.93;4.43;;;;;;;11.00;80.23;101494.19;5048332;28;20036;-83
2023/05/01 02:18:40;;;;;;;6.18;4.18;;;;;;;10.93;80.67;101498.16;5051504;28;20485;-83
2023/05/01 02:21:11;;;;;;;8.27;4.65;;;;;;;10.93;80.82;101482.34;5063975;28;20097;-83
2023/05/01 02:23:43;;;;;;;7.88;4.18;;;;;;;10.89;80.35;101491.41;5049057;28;20041;-82
2023/05/01 02:26:16;;;;;;;7.07;4.40;;;;;;;10.85;81.23;101484.66;5042533;28;20035;-83
2023/05/01 02:28:43;;;;;;;8.38;4.45;;;;;;;10.85;80.61;101485.50;5048723;28;20057;-82
2023/05/01 02:31:11;;;;;;;8.38;4.80;;;;;;;10.83;81.33;101484.75;5047000;28;20044;-82
2023/05/01 02:33:37;;;;;;;8.93;4.45;;;;;;;10.87;80.64;101477.50;5044752;28;20022;-83
2023/05/01 02:36:04;;;;;;;6.38;4.68;;;;;;;10.79;80.22;101483.22;5031534;28;21733;-82
2023/05/01 02:38:30;;;;;;;6.05;3.88;;;;;;;10.80;80.14;101481.44;5046958;28;20135;-82
2023/05/01 02:41:03;;;;;;;8.38;4.35;;;;;;;10.81;79.81;101473.47;5044950;28;20071;-82
2023/05/01 02:43:32;;;;;;;;;;;;;;;10.90;78.65;101472.88;5044512;28;20110;-81
2023/05/01 02:46:06;;;;;;;9.88;4.80;;;;;;;10.77;80.35;101468.47;5007182;28;20004;-82
2023/05/01 02:48:37;;;;;;;7.43;4.38;;;;;;;10.75;80.08;101468.59;5005998;28;20057;-82
2023/05/01 02:51:08;;;;;;;6.50;4.45;;;;;;;10.76;80.18;101464.16;5007113;28;20765;-82
2023/05/01 02:54:03;;;;;;;8.82;4.80;;;;;;;10.80;80.12;101455.97;5013209;28;20036;-82
2023/05/01 02:56:35;;;;;;;8.30;4.90;;;;;;;10.75;80.29;101452.78;5007155;28;20041;-82
2023/05/01 02:59:06;;;;;;;5.90;4.40;;;;;;;10.71;80.56;101453.09;4991080;28;20594;-82
2023/05/01 03:01:34;;;;;;;10.15;4.88;;;;;;;10.71;80.52;101453.09;5007542;28;20410;-82
2023/05/01 03:04:06;;;;;;;7.95;4.43;;;;;;;10.70;81.30;101439.09;5006769;28;20030;-82
2023/05/01 03:06:40;;;;;;;6.72;4.55;;;;;;;10.66;80.72;101443.72;5006799;28;20041;-82
2023/05/01 03:09:12;;;;;;;7.68;5.05;;;;;;;10.66;81.11;101438.44;5023189;28;20025;-83
2023/05/01 03:11:40;;;;;;;7.13;5.15;;;;;;;10.65;80.91;101441.19;5007980;28;20491;-83
2023/05/01 03:14:10;;;;;;;6.70;4.78;;;;;;;10.63;80.73;101438.66;4990933;28;20558;-83
2023/05/01 03:16:38;;;;;;;10.13;5.30;;;;;;;10.59;80.78;101436.31;5013077;28;20421;-83
2023/05/01 03:19:30;;;;;;;8.80;5.18;;;;;;;10.63;81.06;101428.13;5041339;28;20022;-82
2023/05/01 03:21:55;;;;;;;6.93;4.88;;;;;;;10.62;81.27;101428.22;5028171;28;20073;-83
2023/05/01 03:24:24;;;;;;;8.43;5.10;;;;;;;10.59;81.47;101421.38;5062350;28;20060;-83
2023/05/01 03:26:56;;;;;;;6.40;5.00;;;;;;;10.58;81.44;101419.69;5045862;28;20026;-83
2023/05/01 03:29:30;;;;;;;6.10;4.75;;;;;;;10.64;82.63;101418.44;5047848;28;20556;-82
2023/05/01 03:32:01;;;;;;;9.45;5.18;;;;;;;10.58;81.20;101419.69;5063046;28;20044;-83
2023/05/01 03:34:27;;;;;;;9.32;5.43;;;;;;;10.59;82.49;101417.91;5046995;28;20020;-83
2023/05/01 03:37:01;;;;;;;8.05;5.53;;;;;;;10.58;82.75;101414.44;5047058;28;20031;-83
2023/05/01 03:39:38;;;;;;;9.07;5.72;;;;;;;10.53;82.96;101406.00;5049225;28;20032;-83
2023/05/01 03:42:07;;;;;;;7.20;5.13;;;;;;;10.52;83.01;101412.19;5045772;28;20032;-83
2023/05/01 03:44:35;;;;;;;11.68;5.50;;;;;;;10.51;82.61;101407.88;5044379;28;20075;-83
2023/05/01 03:47:03;;;;;;;9.23;5.55;;;;;;;10.48;83.43;101402.81;5047721;28;20049;-83
2023/05/01 03:49:29;;;;;;;9.55;5.68;;;;;;;10.46;82.73;101404.69;5048238;28;20104;-83
2023/05/01 03:51:56;;;;;;;10.85;5.72;;;;;;;10.43;83.81;101407.53;5037134;28;20124;-83
2023/05/01 03:54:21;;;;;;;6.63;5.00;;;;;;;10.44;82.96;101403.97;5041129;28;20102;-83
2023/05/01 03:57:08;;;;;;;6.63;5.30;;;;;;;10.43;83.87;101401.44;5045893;28;20052;-83
2023/05/01 03:59:34;;;;;;;8.32;5.60;;;;;;;10.45;83.43;101394.28;5046620;28;20485;-83
2023/05/01 04:02:09;;;;;;;7.60;5.32;;;;;;;10.44;84.22;101397.84;5046397;28;20033;-83
2023/05/01 04:04:38;;;;;;;6.28;5.03;;;;;;;10.45;84.46;101389.88;5044043;28;20022;-83
2023/05/01 04:07:06;;;;;;;9.13;5.40;;;;;;;10.39;84.53;101392.84;5029220;28;20044;-83
2023/05/01 04:09:35;;;;;;;8.70;5.20;;;;;;;10.44;84.14;101396.06;5047652;28;20547;-83
2023/05/01 04:12:01;;;;;;;11.48;5.78;;;;;;;10.40;84.47;101393.69;5046534;28;20028;-82
2023/05/01 04:14:29;;;;;;;8.57;5.85;;;;;;;10.38;84.14;101392.97;5005519;28;20153;-83
2023/05/01 04:17:01;;;;;;;7.15;5.65;;;;;;;10.39;84.00;101399.91;5008019;28;20152;-83
2023/05/01 04:19:26;;;;;;;14.02;5.80;;;;;;;10.36;84.10;101400.94;4984044;28;20088;-83
2023/05/01 04:21:54;;;;;;;8.43;5.50;;;;;;;10.44;85.34;101405.75;4991124;28;20437;-83
2023/05/01 04:24:51;;;;;;;9.07;5.90;;;;;;;10.42;85.99;101408.47;5006051;28;20038;-82
2023/05/01 04:27:18;;;;;;;8.90;6.07;;;;;;;10.34;85.89;101411.56;4993246;28;20044;-83
2023/05/01 04:29:46;;;;;;;12.93;6.10;;;;;;;10.31;85.33;101403.03;4978841;28;20048;-83
2023/05/01 04:32:16;;;;;;;9.70;5.65;;;;;;;10.35;86.10;101408.00;4989294;28;20065;-83
2023/05/01 04:34:42;;;;;;;9.35;5.90;;;;;;;10.33;86.19;101401.16;4989387;28;20084;-83
2023/05/01 04:37:16;;;;;;;11.13;6.30;;;;;;;10.32;87.56;101397.69;5005624;28;20034;-83
2023/05/01 04:39:44;;;;;;;8.77;6.18;;;;;;;10.30;86.86;101398.72;5006083;28;20044;-83
2023/05/01 04:42:10;;;;;;;12.45;5.90;;;;;;;10.33;86.81;101398.53;5001844;28;20026;-83
2023/05/01 04:44:36;;;;;;;11.70;6.65;;;;;;;10.30;87.46;101393.47;4996556;28;20044;-83
2023/05/01 04:47:03;;;;;;;12.93;6.30;;;;;;;10.30;87.63;101393.47;5059200;28;20742;-83
2023/05/01 04:49:33;;;;;;;8.85;6.63;;;;;;;10.22;87.58;101393.94;5045022;28;20409;-83
2023/05/01 04:52:04;;;;;;;10.15;6.05;;;;;;;10.27;87.32;101399.75;5048311;28;20021;-83
2023/05/01 04:54:33;;;;;;;11.07;6.10;;;;;;;10.26;87.19;101391.97;5047763;28;20025;-83
2023/05/01 04:56:58;;;;;;;13.80;7.18;;;;;;;10.28;88.02;101390.09;5039844;28;20029;-83
2023/05/01 04:59:28;;;;;;;10.23;6.47;;;;;;;10.28;88.57;101395.34;5046727;28;20114;-83
2023/05/01 05:01:54;;;;;;;8.60;6.50;;;;;;;10.28;88.24;101383.03;5063238;28;20028;-83
2023/05/01 05:04:35;;;;;;;21.95;12.60;;;;;;;10.31;87.77;101390.72;5051559;28;20032;-83
2023/05/01 05:07:03;;;;;;;42.45;31.95;;;;;;;10.23;87.29;101386.91;5048283;28;20087;-83
2023/05/01 05:09:29;;;;;;;88.70;68.03;;;;;;;10.30;87.13;101388.19;5050403;28;20032;-83
2023/05/01 05:12:21;;;;;;;50.95;38.33;;;;;;;10.36;87.27;101385.16;5066885;28;20390;-83
2023/05/01 05:15:00;;;;;;;15.93;10.10;;;;;;;10.35;86.63;101386.13;5008958;28;20049;-83
2023/05/01 05:17:28;;;;;;;14.48;9.05;;;;;;;10.37;85.63;101384.22;5050671;28;20037;-83
2023/05/01 05:20:01;;;;;;;14.40;9.50;;;;;;;10.42;85.00;101387.44;5052193;28;20029;-83
2023/05/01 05:22:26;;;;;;;12.27;7.28;;;;;;;10.42;84.34;101384.81;5049714;28;20028;-84
2023/05/01 05:24:58;;;;;;;10.57;7.65;;;;;;;10.47;84.24;101384.50;5050954;28;20390;-83
2023/05/01 05:27:27;;;;;;;13.63;8.82;;;;;;;10.48;84.06;101387.03;5051489;28;20100;-83
2023/05/01 05:29:56;;;;;;;12.85;6.88;;;;;;;10.47;83.21;101384.50;5049789;28;20485;-83
2023/05/01 05:32:29;;;;;;;11.18;7.20;;;;;;;10.46;83.59;101378.41;5049490;28;20024;-83
2023/05/01 05:34:55;;;;;;;10.60;8.35;;;;;;;10.53;83.45;101384.09;5050122;28;20017;-83
2023/05/01 05:37:24;;;;;;;12.93;7.50;;;;;;;10.54;83.73;101386.63;5050500;28;20099;-83
2023/05/01 05:40:08;;;;;;;10.32;7.30;;;;;;;10.65;83.49;101388.56;5047364;28;20052;-83
2023/05/01 05:42:34;;;;;;;11.13;7.47;;;;;;;10.72;82.97;101381.09;5047277;28;20124;-84
2023/05/01 05:45:20;;;;;;;13.07;7.72;;;;;;;10.85;82.20;101389.88;5050543;28;20541;-83
2023/05/01 05:47:49;;;;;;;9.98;7.38;;;;;;;10.97;81.69;101383.78;5047176;28;20056;-84
2023/05/01 05:50:14;;;;;;;10.60;7.20;;;;;;;11.08;81.42;101390.97;5047987;28;20029;-83
2023/05/01 05:52:49;;;;;;;10.68;7.22;;;;;;;11.17;81.13;101383.28;5050245;28;20098;-83
2023/05/01 05:55:18;;;;;;;13.15;7.45;;;;;;;11.22;79.97;101386.47;5051019;28;20736;-83
2023/05/01 05:57:43;;;;;;;12.82;7.60;;;;;;;11.23;80.64;101388.16;5050920;28;20036;-83
2023/05/01 06:00:12;;;;;;;10.63;7.20;;;;;;;11.32;80.94;101383.19;5049997;28;20028;-83
2023/05/01 06:02:41;;;;;;;10.13;7.35;;;;;;;11.38;81.60;101388.03;5050534;28;20117;-83
2023/05/01 06:05:10;;;;;;;12.85;7.68;;;;;;;11.47;79.18;101382.13;5045726;28;20025;-84
2023/05/01 06:07:42;;;;;;;11.88;7.55;;;;;;;11.52;79.13;101380.03;5046410;28;20040;-83
2023/05/01 06:10:17;;;;;;;11.80;7.53;;;;;;;11.59;78.98;101381.28;5043024;28;20012;-83
2023/05/01 06:12:49;;;;;;;12.18;7.40;;;;;;;11.47;78.12;101376.88;5064020;28;20393;-83
2023/05/01 06:15:15;;;;;;;12.07;7.95;;;;;;;11.51;78.96;101378.34;5048387;28;20139;-83
2023/05/01 06:17:45;;;;;;;14.00;8.00;;;;;;;11.48;78.96;101384.66;5041655;28;20050;-83
2023/05/01 06:20:13;;;;;;;12.70;7.53;;;;;;;11.50;78.38;101387.19;5046405;28;20056;-82
2023/05/01 06:22:51;;;;;;;12.30;8.48;;;;;;;11.55;78.28;101385.91;5049748;28;20028;-83
2023/05/01 06:25:16;;;;;;;10.82;7.80;;;;;;;11.63;78.52;101374.88;5060468;28;20069;-83
2023/05/01 06:27:53;;;;;;;12.02;7.93;;;;;;;11.65;78.27;101364.22;5039912;28;20116;-83
2023/05/01 06:30:45;;;;;;;11.35;7.75;;;;;;;11.83;78.40;101373.47;5049039;28;20056;-83
2023/05/01 06:33:10;;;;;;;11.25;7.55;;;;;;;11.76;77.18;101370.41;5029090;28;20045;-83
2023/05/01 06:35:45;;;;;;;11.20;7.57;;;;;;;11.89;77.88;101375.69;5049254;28;20104;-83
2023/05/01 06:38:16;;;;;;;12.65;8.00;;;;;;;11.90;78.05;101377.38;5041501;28;20035;-82
2023/05/01 06:40:48;;;;;;;11.52;7.88;;;;;;;11.99;77.94;101374.06;5045836;28;20025;-84
2023/05/01 06:43:20;;;;;;;9.82;7.60;;;;;;;12.16;78.06;101364.97;5044930;28;20033;-83
2023/05/01 06:45:49;;;;;;;12.63;8.23;;;;;;;12.27;77.04;101372.94;5050585;28;20056;-83
2023/05/01 06:48:15;;;;;;;10.93;8.40;;;;;;;12.39;77.17;101364.13;5047218;28;20440;-83
2023/05/01 06:50:46;;;;;;;13.63;7.82;;;;;;;12.44;76.43;101369.94;5049125;28;20083;-83
2023/05/01 06:53:17;;;;;;;14.90;8.15;;;;;;;12.50;75.99;101361.56;5050119;28;20612;-83
2023/05/01 06:55:46;;;;;;;9.40;7.60;;;;;;;12.62;75.79;101372.16;5032889;28;20104;-83
2023/05/01 06:58:11;;;;;;;12.48;8.05;;;;;;;12.72;75.84;101357.31;5030180;28;20474;-83
2023/05/01 07:00:40;;;;;;;14.73;8.43;;;;;;;12.88;75.28;101367.56;5047800;28;20025;-83
2023/05/01 07:03:08;;;;;;;14.07;8.57;;;;;;;12.87;74.36;101361.47;5045666;28;20026;-81
2023/05/01 07:05:40;;;;;;;11.90;8.18;;;;;;;12.97;75.39;101365.06;5028536;28;20037;-82
2023/05/01 07:08:08;;;;;;;12.75;8.50;;;;;;;13.17;74.25;101367.06;5042822;28;20032;-82
2023/05/01 07:10:36;;;;;;;14.07;7.70;;;;;;;13.27;73.81;101369.03;5049399;28;20029;-82
2023/05/01 07:13:13;;;;;;;15.02;8.45;;;;;;;13.40;73.37;101365.31;5049109;28;20565;-82
2023/05/01 07:15:45;;;;;;;10.15;8.05;;;;;;;13.50;73.21;101362.78;5030000;28;20013;-82
2023/05/01 07:18:15;;;;;;;14.10;8.57;;;;;;;13.70;73.22;101361.25;5034355;28;20110;-82
2023/05/01 07:20:42;;;;;;;11.32;8.15;;;;;;;13.68;73.89;101365.81;5048821;28;20048;-82
2023/05/01 07:23:10;;;;;;;15.25;8.60;;;;;;;13.68;72.20;101369.28;5039580;28;20021;-80
2023/05/01 07:25:44;;;;;;;13.65;8.13;;;;;;;13.82;72.23;101368.19;5032552;28;20025;-83
2023/05/01 07:28:10;;;;;;;12.48;8.32;;;;;;;14.05;70.34;101363.72;5048985;28;20388;-81
2023/05/01 07:30:41;;;;;;;15.07;8.25;;;;;;;14.17;71.31;101370.66;5049143;28;20040;-83
2023/05/01 07:33:07;;;;;;;12.68;8.75;;;;;;;14.33;71.07;101363.16;5048937;28;20058;-80
2023/05/01 07:35:35;;;;;;;14.32;8.85;;;;;;;14.40;69.50;101361.69;5049478;28;20017;-82
2023/05/01 07:38:07;;;;;;;13.32;8.00;;;;;;;14.69;69.76;101371.72;5048495;28;20025;-80
2023/05/01 07:40:39;;;;;;;14.75;8.43;;;;;;;14.93;68.66;101368.88;5063147;28;20047;-82
2023/05/01 07:43:06;;;;;;;11.52;8.02;;;;;;;15.28;67.45;101368.53;5045940;28;20599;-82
2023/05/01 07:45:34;;;;;;;12.63;8.02;;;;;;;15.52;66.26;101377.00;5037151;28;20108;-82
2023/05/01 07:48:08;;;;;;;14.77;7.85;;;;;;;15.81;65.46;101365.72;5012677;28;20064;-82
2023/05/01 07:50:33;;;;;;;12.48;8.07;;;;;;;16.21;65.68;101365.69;5046779;28;20386;-84
2023/05/01 07:53:03;;;;;;;15.20;8.00;;;;;;;16.37;64.40;101367.78;5050107;28;20035;-84
2023/05/01 07:55:32;;;;;;;14.05;8.00;;;;;;;16.46;64.12;101367.00;5047513;28;20514;-84
2023/05/01 07:57:57;;;;;;;9.90;7.07;;;;;;;16.68;63.10;101361.41;5063749;28;20036;-84
2023/05/01 08:00:23;;;;;;;9.65;7.78;;;;;;;16.90;62.15;101361.13;5042496;28;20037;-84
2023/05/01 08:02:50;;;;;;;15.65;7.70;;;;;;;17.04;61.75;101359.84;5023793;28;20048;-83
2023/05/01 08:05:15;;;;;;;13.10;7.85;;;;;;;17.36;60.51;101356.84;5028184;28;20136;-83
2023/05/01 08:07:41;;;;;;;13.63;7.85;;;;;;;17.54;59.59;101351.59;5028660;28;20561;-83
2023/05/01 08:10:10;;;;;;;11.35;8.00;;;;;;;17.71;60.00;101350.84;5032187;28;20490;-83
2023/05/01 08:12:41;;;;;;;12.05;8.07;;;;;;;18.13;59.82;101356.50;5061201;28;20481;-83
2023/05/01 08:15:16;;;;;;;11.63;6.90;;;;;;;18.35;58.44;101349.06;5047522;28;20024;-84
2023/05/01 08:17:53;;;;;;;17.92;7.30;;;;;;;18.68;57.70;101351.06;5065107;28;20397;-84
2023/05/01 08:20:19;;;;;;;12.20;7.47;;;;;;;18.70;56.41;101348.25;5044760;28;20025;-84
2023/05/01 08:22:48;;;;;;;18.20;8.20;;;;;;;18.57;55.53;101350.44;5049268;28;20033;-84
2023/05/01 08:25:16;;;;;;;13.38;7.47;;;;;;;18.93;55.45;101340.59;5045478;28;20026;-84
2023/05/01 08:27:44;;;;;;;9.13;6.68;;;;;;;19.34;54.92;101347.03;5041625;28;20104;-84
2023/05/01 08:30:10;;;;;;;11.98;7.10;;;;;;;19.26;53.38;101345.19;5036851;28;20017;-84
2023/05/01 08:32:35;;;;;;;12.93;6.28;;;;;;;19.25;52.17;101348.84;5047329;28;20032;-84
2023/05/01 08:35:04;;;;;;;9.32;7.13;;;;;;;19.51;51.39;101347.97;5047480;28;20036;-84
2023/05/01 08:37:39;;;;;;;11.27;5.97;;;;;;;19.54;52.85;101342.34;5050482;28;20061;-83
2023/05/01 08:40:14;;;;;;;10.60;6.25;;;;;;;19.49;52.51;101342.78;5049808;28;20064;-84
2023/05/01 08:42:49;;;;;;;8.32;6.15;;;;;;;19.58;51.39;101351.69;5051811;28;20107;-84
2023/05/01 08:45:26;;;;;;;8.50;6.20;;;;;;;19.55;52.68;101352.00;5051863;28;20025;-83
2023/05/01 08:47:56;;;;;;;6.70;5.70;;;;;;;19.55;51.68;101349.34;5051759;28;20049;-84
2023/05/01 08:50:28;;;;;;;9.98;6.10;;;;;;;19.39;51.15;101350.06;5051063;28;20107;-84
2023/05/01 08:53:04;;;;;;;9.45;6.18;;;;;;;19.24;52.11;101352.50;5002556;28;20034;-84
2023/05/01 08:55:34;;;;;;;8.43;6.50;;;;;;;19.15;51.71;101347.25;4990077;28;20035;-84
2023/05/01 08:58:24;;;;;;;15.88;6.43;;;;;;;18.95;52.71;101343.94;4998734;28;20038;-83
2023/05/01 09:00:57;;;;;;;7.85;6.45;;;;;;;19.46;51.96;101350.28;5003193;28;20044;-84
2023/05/01 09:03:30;;;;;;;10.95;6.72;;;;;;;19.42;51.50;101352.44;5006453;28;20038;-83
2023/05/01 09:06:16;;;;;;;9.38;6.20;;;;;;;19.53;51.98;101362.00;4998092;28;20036;-84
2023/05/01 09:08:47;;;;;;;10.38;6.38;;;;;;;19.67;51.49;101364.09;4997033;28;20038;-84
2023/05/01 09:11:16;;;;;;;13.68;7.40;;;;;;;19.57;50.92;101356.19;5009988;28;20029;-84
2023/05/01 09:13:47;;;;;;;7.78;6.60;;;;;;;19.70;51.03;101353.09;5010403;28;20034;-84
2023/05/01 09:16:13;;;;;;;10.00;7.03;;;;;;;19.92;51.20;101357.00;4987854;28;20119;-84
2023/05/01 09:18:47;;;;;;;11.13;6.82;;;;;;;20.00;49.85;101349.03;5009748;28;20126;-84
2023/05/01 09:21:16;;;;;;;11.85;6.70;;;;;;;19.88;50.49;101350.31;5009051;28;20061;-84
2023/05/01 09:23:45;;;;;;;14.30;7.35;;;;;;;19.99;50.46;101347.34;5007614;28;20037;-84
2023/05/01 09:26:16;;;;;;;10.82;7.15;;;;;;;20.05;51.50;101353.91;5046103;28;20020;-83
2023/05/01 09:28:46;;;;;;;12.90;7.43;;;;;;;20.30;50.00;101348.44;5046946;28;20040;-83
2023/05/01 09:31:31;;;;;;;10.00;7.10;;;;;;;20.56;50.99;101356.34;5046922;28;20122;-83
2023/05/01 09:34:04;;;;;;;10.15;7.18;;;;;;;20.61;48.62;101354.03;5050145;28;20028;-83
2023/05/01 09:36:36;;;;;;;11.75;7.35;;;;;;;20.68;49.95;101353.34;5050425;28;20021;-83
2023/05/01 09:39:23;;;;;;;9.07;6.97;;;;;;;21.01;50.06;101348.81;5047059;28;20028;-83
2023/05/01 09:41:53;;;;;;;9.60;7.05;;;;;;;21.19;48.78;101350.28;5048132;28;20131;-83
2023/05/01 09:44:30;;;;;;;8.13;7.13;;;;;;;21.26;47.65;101348.66;5046766;28;20131;-83
2023/05/01 09:46:58;;;;;;;10.35;7.22;;;;;;;21.90;46.50;101352.09;5051062;28;20057;-83
2023/05/01 09:49:47;;;;;;;8.32;6.70;;;;;;;22.44;47.42;101349.47;5048694;28;20040;-84
2023/05/01 09:52:19;;;;;;;10.88;7.32;;;;;;;22.51;44.27;101337.00;5049073;28;20041;-83
2023/05/01 09:54:45;;;;;;;11.32;7.00;;;;;;;22.13;45.01;101354.88;5048720;28;20036;-83
2023/05/01 09:57:10;;;;;;;10.88;7.35;;;;;;;21.81;45.61;101358.50;5064456;28;20016;-83
2023/05/01 10:00:07;;;;;;;12.88;7.18;;;;;;;21.99;47.36;101355.56;5051594;28;20069;-83
2023/05/01 10:02:48;;;;;;;12.85;7.10;;;;;;;21.66;48.46;101360.25;5043156;28;20052;-83
2023/05/01 10:05:14;;;;;;;9.40;6.45;;;;;;;21.31;44.85;101363.38;5043805;28;20037;-83
2023/05/01 10:08:17;;;;;;;11.80;6.40;;;;;;;21.17;46.60;101360.34;5048809;28;20535;-84
2023/05/01 10:11:10;;;;;;;11.18;6.95;;;;;;;21.16;47.62;101358.66;5036979;28;20586;-84
2023/05/01 10:13:38;;;;;;;6.88;5.72;;;;;;;20.85;46.51;101360.38;5041539;28;20525;-83
2023/05/01 10:16:13;;;;;;;9.75;6.40;;;;;;;20.59;46.06;101356.03;5043599;28;20028;-83
2023/05/01 10:18:51;;;;;;;9.93;6.53;;;;;;;20.58;47.29;101358.88;5031284;28;20043;-83
2023/05/01 10:21:17;;;;;;;8.15;6.45;;;;;;;20.50;47.01;101362.38;5043692;28;20033;-83
2023/05/01 10:23:48;;;;;;;10.18;6.75;;;;;;;20.50;47.31;101362.38;5049273;28;20029;-83
2023/05/01 10:26:19;;;;;;;8.90;7.20;;;;;;;20.48;47.20;101361.72;5039772;28;20059;-83
2023/05/01 10:28:57;;;;;;;13.43;7.43;;;;;;;20.69;48.72;101371.06;5046189;28;20069;-84
2023/05/01 10:31:23;;;;;;;12.00;7.22;;;;;;;20.76;49.30;101361.38;5008000;28;21028;-84
2023/05/01 10:34:01;;;;;;;9.48;7.60;;;;;;;20.62;49.03;101354.84;5009008;28;20034;-83
2023/05/01 10:36:55;;;;;;;12.90;7.30;;;;;;;20.83;49.98;101365.06;5005183;28;20126;-83
2023/05/01 10:39:39;;;;;;;9.95;6.47;;;;;;;20.79;50.03;101364.53;5015910;28;20056;-84
2023/05/01 10:42:13;;;;;;;8.30;6.25;;;;;;;20.77;49.58;101371.06;4985676;28;20042;-83
2023/05/01 10:44:45;;;;;;;10.57;6.47;;;;;;;20.60;48.83;101370.22;5012252;28;20034;-83
2023/05/01 10:47:34;;;;;;;8.45;6.68;;;;;;;20.53;50.27;101374.56;4984531;28;20053;-84
2023/05/01 10:50:15;;;;;;;9.90;7.22;;;;;;;20.57;50.83;101378.59;4993194;28;20064;-83
2023/05/01 10:53:08;;;;;;;8.98;6.85;;;;;;;20.62;50.56;101371.72;5005930;28;20034;-83
2023/05/01 10:55:58;;;;;;;11.63;7.00;;;;;;;20.59;50.04;101385.44;5004723;28;20042;-83
2023/05/01 10:58:35;;;;;;;9.10;6.88;;;;;;;20.96;49.35;101379.59;4971161;28;20045;-83
2023/05/01 11:01:36;;;;;;;11.27;6.55;;;;;;;21.18;48.26;101378.06;4987361;28;20030;-83
2023/05/01 11:04:23;;;;;;;10.98;6.88;;;;;;;21.08;46.93;101371.22;4988113;28;20395;-83
2023/05/01 11:07:07;;;;;;;9.75;6.53;;;;;;;21.33;48.34;101374.75;4988293;28;20518;-83
2023/05/01 11:10:02;;;;;;;14.93;7.63;;;;;;;20.95;46.58;101372.59;5023963;28;20087;-83
2023/05/01 11:12:49;;;;;;;13.45;6.70;;;;;;;21.29;47.96;101374.25;5064257;28;20036;-83
2023/05/01 11:15:34;;;;;;;11.73;7.50;;;;;;;21.20;48.54;101370.69;5047079;28;20033;-84
2023/05/01 11:18:12;;;;;;;8.88;7.15;;;;;;;20.94;46.22;101378.94;5049849;28;20036;-83
2023/05/01 11:20:52;;;;;;;14.75;8.43;;;;;;;20.52;47.36;101376.41;5050127;28;20366;-83
2023/05/01 11:23:19;;;;;;;10.93;7.50;;;;;;;20.39;47.88;101376.00;5047898;28;20383;-82
2023/05/01 11:25:48;;;;;;;10.77;7.30;;;;;;;20.71;47.65;101371.72;5046389;28;20025;-84
2023/05/01 11:28:20;;;;;;;12.10;7.32;;;;;;;21.03;46.96;101368.22;5045837;28;20083;-84
2023/05/01 11:30:54;;;;;;;9.00;6.55;;;;;;;21.29;46.92;101378.78;5048870;28;20431;-84
2023/05/01 11:36:13;;;;;;;10.10;6.15;;;;;;;21.56;45.38;101375.66;5048292;28;20099;-84
2023/05/01 11:39:04;;;;;;;8.85;5.93;;;;;;;21.77;45.18;101372.44;5064914;28;20032;-84
2023/05/01 11:41:33;;;;;;;8.50;5.93;;;;;;;21.85;44.65;101373.22;5048872;28;20025;-84
2023/05/01 11:43:58;;;;;;;7.18;5.90;;;;;;;21.85;42.19;101381.25;5046272;28;20469;-84
2023/05/01 11:46:34;;;;;;;9.50;5.65;;;;;;;21.78;42.75;101377.63;5048288;28;20059;-84
2023/05/01 11:49:54;;;;;;;17.02;5.10;;;;;;;21.64;40.68;101369.47;5049604;28;20060;-84
2023/05/01 11:52:35;;;;;;;6.93;5.40;;;;;;;21.83;42.05;101374.41;5047383;28;20060;-84
2023/05/01 11:55:02;;;;;;;9.38;5.72;;;;;;;21.89;42.17;101377.22;5048393;28;20112;-84